Time;durP1;ratioP1;P1;durP2;ratioP2;P2;SDS_P1;SDS_P2;PMS_P1;PMS_P2;Temp;Humidity;BMP_temperature;BMP_pressure;BME280_temperature;BME280_humidity;BME280_pressure;Samples;Min_cycle;Max_cycle;Signal;HPM_P1;HPM_P2
2022/08/04 00:01:59;;;;;;;11.27;10.57;;;;;;;;;;5043828;28;20029;-59
2022/08/04 00:04:44;;;;;;;11.70;10.90;;;;;;;;;;5039825;28;20090;-59
2022/08/04 00:07:17;;;;;;;16.17;15.27;;;;;;;;;;5040685;28;20021;-60
2022/08/04 00:09:48;;;;;;;13.15;12.35;;;;;;;;;;5045100;28;20061;-59
2022/08/04 00:12:15;;;;;;;14.50;13.60;;;;;;;;;;5041892;28;20039;-59
2022/08/04 00:14:47;;;;;;;12.13;11.23;;;;;;;;;;5044744;28;20091;-59
2022/08/04 00:17:14;;;;;;;12.15;11.35;;;;;;;;;;5045206;28;20455;-59
2022/08/04 00:19:45;;;;;;;12.30;11.50;;;;;;;;;;5045050;28;20021;-59
2022/08/04 00:22:12;;;;;;;14.85;13.90;;;;;;;;;;5045244;28;20021;-59
2022/08/04 00:24:38;;;;;;;14.18;13.27;;;;;;;;;;5045467;28;20124;-59
2022/08/04 00:27:06;;;;;;;13.48;12.68;;;;;;;;;;5039926;28;20455;-59
2022/08/04 00:29:33;;;;;;;15.38;14.48;;;;;;;;;;5044526;28;20139;-59
2022/08/04 00:32:00;;;;;;;21.77;20.58;;;;;;;;;;5047860;28;20033;-60
2022/08/04 00:34:27;;;;;;;25.58;24.20;;;;;;;;;;5042748;28;20756;-60
2022/08/04 00:36:54;;;;;;;23.65;22.35;;;;;;;;;;5040329;28;20132;-60
2022/08/04 00:39:20;;;;;;;24.42;23.13;;;;;;;;;;5039573;28;20033;-60
2022/08/04 00:41:56;;;;;;;34.42;32.63;;;;;;;;;;5044274;28;20040;-60
2022/08/04 00:44:51;;;;;;;34.08;32.30;;;;;;;;;;5042125;28;20025;-60
2022/08/04 00:47:50;;;;;;;26.77;25.27;;;;;;;;;;5044286;28;20505;-60
2022/08/04 00:50:30;;;;;;;36.08;34.20;;;;;;;;;;5045048;28;20028;-60
2022/08/04 00:53:18;;;;;;;26.23;24.83;;;;;;;;;;5042949;28;20024;-60
2022/08/04 00:56:01;;;;;;;22.05;20.85;;;;;;;;;;5040455;28;20073;-61
2022/08/04 00:58:45;;;;;;;24.83;23.52;;;;;;;;;;5040067;28;20036;-61
2022/08/04 01:01:39;;;;;;;28.80;27.25;;;;;;;;;;5038991;28;20354;-61
2022/08/04 01:04:13;;;;;;;28.02;26.52;;;;;;;;;;5042756;28;20028;-61
2022/08/04 01:07:15;;;;;;;32.97;31.27;;;;;;;;;;5043613;28;20103;-60
2022/08/04 01:10:04;;;;;;;32.35;30.58;;;;;;;;;;5043023;28;20033;-60
2022/08/04 01:12:48;;;;;;;27.25;25.75;;;;;;;;;;5038806;28;20033;-59
2022/08/04 01:15:30;;;;;;;25.50;24.15;;;;;;;;;;5043666;28;20362;-60
2022/08/04 01:17:59;;;;;;;33.90;31.80;;;;;;;;;;5043211;28;20029;-60
2022/08/04 01:20:26;;;;;;;29.48;27.95;;;;;;;;;;5043153;28;20021;-60
2022/08/04 01:23:22;;;;;;;30.10;28.52;;;;;;;;;;5043544;28;20332;-61
2022/08/04 01:26:33;;;;;;;29.23;27.73;;;;;;;;;;5043289;28;20040;-60
2022/08/04 01:29:05;;;;;;;24.60;23.30;;;;;;;;;;5016825;28;20030;-60
2022/08/04 01:31:55;;;;;;;22.63;21.35;;;;;;;;;;5033046;28;20060;-60
2022/08/04 01:34:21;;;;;;;;;;;;;;;;;;5044025;28;20120;-60
2022/08/04 01:36:58;;;;;;;22.73;21.50;;;;;;;;;;5042653;28;20011;-60
2022/08/04 01:39:41;;;;;;;22.17;20.98;;;;;;;;;;5037779;28;20146;-60
2022/08/04 01:42:11;;;;;;;22.00;20.80;;;;;;;;;;5044435;28;20056;-60
2022/08/04 01:44:39;;;;;;;20.40;19.30;;;;;;;;;;5043811;28;20044;-60
2022/08/04 01:47:07;;;;;;;25.30;23.92;;;;;;;;;;5045904;28;20029;-60
2022/08/04 01:49:32;;;;;;;24.98;23.67;;;;;;;;;;5044496;28;20669;-60
2022/08/04 01:51:58;;;;;;;22.40;21.10;;;;;;;;;;5039846;28;20068;-60
2022/08/04 01:54:26;;;;;;;25.92;24.52;;;;;;;;;;5036656;28;20036;-60
2022/08/04 01:56:53;;;;;;;22.75;21.48;;;;;;;;;;5043452;28;20494;-60
2022/08/04 01:59:20;;;;;;;25.45;24.08;;;;;;;;;;5041564;28;20548;-60
2022/08/04 02:01:46;;;;;;;22.50;21.30;;;;;;;;;;5038630;28;20083;-60
2022/08/04 02:04:17;;;;;;;21.90;20.70;;;;;;;;;;5038256;28;20013;-60
2022/08/04 02:06:55;;;;;;;15.60;14.70;;;;;;;;;;5039304;28;20030;-60
2022/08/04 02:09:45;;;;;;;20.42;19.33;;;;;;;;;;5045611;28;20385;-60
2022/08/04 02:12:34;;;;;;;23.42;22.13;;;;;;;;;;5036353;28;20100;-60
2022/08/04 02:15:16;;;;;;;20.27;19.17;;;;;;;;;;5043789;28;20037;-60
2022/08/04 02:17:42;;;;;;;17.88;16.88;;;;;;;;;;5046231;28;20037;-60
2022/08/04 02:20:14;;;;;;;16.58;15.63;;;;;;;;;;5043569;28;20068;-60
2022/08/04 02:22:51;;;;;;;20.10;19.00;;;;;;;;;;5047698;28;20442;-60
2022/08/04 02:25:23;;;;;;;18.70;17.60;;;;;;;;;;5045138;28;20026;-60
2022/08/04 02:27:56;;;;;;;24.50;23.15;;;;;;;;;;5049243;28;20049;-60
2022/08/04 02:30:30;;;;;;;33.30;31.52;;;;;;;;;;5047131;28;20041;-60
2022/08/04 02:33:00;;;;;;;36.17;34.30;;;;;;;;;;5045432;28;20028;-60
2022/08/04 02:35:26;;;;;;;36.13;34.22;;;;;;;;;;5044311;28;20056;-60
2022/08/04 02:38:05;;;;;;;40.30;38.17;;;;;;;;;;5040329;28;20037;-61
2022/08/04 02:40:31;;;;;;;42.17;40.03;;;;;;;;;;5046210;28;20096;-60
2022/08/04 02:42:58;;;;;;;45.10;42.83;;;;;;;;;;5046963;28;20078;-60
2022/08/04 02:45:25;;;;;;;47.30;44.90;;;;;;;;;;5048486;28;20546;-60
2022/08/04 02:47:53;;;;;;;40.20;38.15;;;;;;;;;;5047333;28;20028;-61
2022/08/04 02:50:19;;;;;;;42.67;40.50;;;;;;;;;;5048418;28;20032;-60
2022/08/04 02:52:47;;;;;;;36.38;34.47;;;;;;;;;;5050156;28;20032;-60
2022/08/04 02:55:16;;;;;;;51.63;49.03;;;;;;;;;;5045420;28;20401;-60
2022/08/04 02:57:46;;;;;;;44.55;42.25;;;;;;;;;;5050435;28;20033;-60
2022/08/04 03:00:13;;;;;;;49.63;47.13;;;;;;;;;;5047655;28;20043;-60
2022/08/04 03:02:53;;;;;;;34.53;32.72;;;;;;;;;;5050000;28;20033;-60
2022/08/04 03:05:24;;;;;;;30.15;28.55;;;;;;;;;;5045114;28;20036;-59
2022/08/04 03:07:55;;;;;;;32.83;31.02;;;;;;;;;;5044920;28;20083;-60
2022/08/04 03:10:46;;;;;;;54.83;52.08;;;;;;;;;;5047647;28;20024;-60
2022/08/04 03:13:44;;;;;;;48.92;46.42;;;;;;;;;;5039233;28;20094;-60
2022/08/04 03:16:46;;;;;;;47.55;45.13;;;;;;;;;;5048250;28;20049;-60
2022/08/04 03:19:39;;;;;;;43.55;41.33;;;;;;;;;;5047158;28;20021;-60
2022/08/04 03:22:33;;;;;;;44.67;42.28;;;;;;;;;;5047872;28;20029;-60
2022/08/04 03:24:59;;;;;;;44.95;42.65;;;;;;;;;;5044586;28;20390;-60
2022/08/04 03:27:36;;;;;;;56.00;53.13;;;;;;;;;;5046265;28;20040;-60
2022/08/04 03:30:06;;;;;;;45.05;42.75;;;;;;;;;;5043410;28;20469;-60
2022/08/04 03:33:05;;;;;;;49.45;46.92;;;;;;;;;;5046558;28;20053;-60
2022/08/04 03:35:50;;;;;;;61.15;58.03;;;;;;;;;;5044811;28;20471;-60
2022/08/04 03:38:43;;;;;;;58.38;55.47;;;;;;;;;;5040653;28;20100;-60
2022/08/04 03:41:35;;;;;;;65.00;61.72;;;;;;;;;;5041169;28;20494;-60
2022/08/04 03:44:10;;;;;;;69.78;66.22;;;;;;;;;;5044661;28;20029;-60
2022/08/04 03:47:06;;;;;;;68.45;65.03;;;;;;;;;;5039360;28;20033;-60
2022/08/04 03:49:38;;;;;;;61.88;58.75;;;;;;;;;;5045300;28;20442;-60
2022/08/04 03:55:28;;;;;;;56.30;53.45;;;;;;;;;;5043926;28;20583;-61
2022/08/04 03:58:21;;;;;;;61.72;58.63;;;;;;;;;;5044658;28;20068;-61
2022/08/04 04:01:17;;;;;;;55.55;52.75;;;;;;;;;;5044673;28;20398;-61
2022/08/04 04:04:10;;;;;;;73.75;69.97;;;;;;;;;;5038731;28;20041;-60
2022/08/04 04:07:13;;;;;;;87.43;83.05;;;;;;;;;;5043114;28;20041;-61
2022/08/04 04:10:05;;;;;;;86.32;82.05;;;;;;;;;;5040142;28;20102;-61
2022/08/04 04:13:05;;;;;;;81.95;77.88;;;;;;;;;;5040238;28;20025;-61
2022/08/04 04:15:49;;;;;;;78.37;74.50;;;;;;;;;;5047040;28;20025;-60
2022/08/04 04:18:32;;;;;;;85.50;81.28;;;;;;;;;;5040318;28;20281;-60
2022/08/04 04:21:24;;;;;;;83.55;79.35;;;;;;;;;;5041982;28;20040;-60
2022/08/04 04:24:23;;;;;;;65.47;62.17;;;;;;;;;;5042236;28;20021;-61
2022/08/04 04:27:14;;;;;;;81.18;77.13;;;;;;;;;;5042274;28;20526;-61
2022/08/04 04:29:50;;;;;;;86.43;82.13;;;;;;;;;;5044389;28;20045;-61
2022/08/04 04:32:26;;;;;;;76.60;72.80;;;;;;;;;;5036405;28;20044;-61
2022/08/04 04:35:03;;;;;;;74.20;70.47;;;;;;;;;;5041809;28;20459;-60
2022/08/04 04:38:06;;;;;;;56.00;53.15;;;;;;;;;;5043117;28;20565;-60
2022/08/04 04:40:38;;;;;;;46.20;43.85;;;;;;;;;;5037718;28;20030;-60
2022/08/04 04:43:39;;;;;;;52.70;50.03;;;;;;;;;;5049358;28;20041;-60
2022/08/04 04:46:35;;;;;;;51.92;49.30;;;;;;;;;;5043849;28;20661;-60
2022/08/04 04:49:07;;;;;;;62.92;59.78;;;;;;;;;;5045191;28;20095;-60
2022/08/04 04:51:54;;;;;;;91.78;87.22;;;;;;;;;;5046286;28;20134;-60
2022/08/04 04:55:18;;;;;;;69.43;65.97;;;;;;;;;;5048107;28;20025;-60
2022/08/04 04:57:45;;;;;;;46.47;44.10;;;;;;;;;;5013042;28;20083;-60
2022/08/04 05:00:12;;;;;;;71.05;67.47;;;;;;;;;;5045678;28;20514;-59
2022/08/04 05:03:15;;;;;;;37.67;35.67;;;;;;;;;;5050365;28;20049;-60
2022/08/04 05:06:18;;;;;;;47.85;45.38;;;;;;;;;;5042829;28;20036;-60
2022/08/04 05:09:09;;;;;;;63.92;60.72;;;;;;;;;;5022695;28;20029;-60
2022/08/04 05:11:37;;;;;;;57.60;54.70;;;;;;;;;;5043097;28;20550;-60
2022/08/04 05:14:10;;;;;;;62.88;59.67;;;;;;;;;;5038756;28;20041;-60
2022/08/04 05:16:45;;;;;;;47.40;45.00;;;;;;;;;;5038898;28;20025;-60
2022/08/04 05:19:28;;;;;;;48.15;45.70;;;;;;;;;;5042261;28;20092;-60
2022/08/04 05:22:10;;;;;;;44.17;41.90;;;;;;;;;;5043355;28;20470;-60
2022/08/04 05:24:41;;;;;;;36.03;34.13;;;;;;;;;;5043799;28;20069;-60
2022/08/04 05:27:21;;;;;;;26.90;25.42;;;;;;;;;;5048926;28;20025;-59
2022/08/04 05:29:53;;;;;;;24.38;23.08;;;;;;;;;;5047569;28;20091;-60
2022/08/04 05:32:25;;;;;;;22.17;20.98;;;;;;;;;;5042515;28;20043;-60
2022/08/04 05:35:01;;;;;;;23.75;22.45;;;;;;;;;;5050686;28;20044;-60
2022/08/04 05:37:28;;;;;;;15.95;15.05;;;;;;;;;;5049251;28;20029;-60
2022/08/04 05:40:04;;;;;;;19.80;18.00;;;;;;;;;;5042109;28;20033;-59
2022/08/04 05:42:34;;;;;;;18.92;17.88;;;;;;;;;;5044860;28;20028;-60
2022/08/04 05:45:01;;;;;;;11.57;10.77;;;;;;;;;;5042899;28;20029;-60
2022/08/04 05:47:29;;;;;;;19.45;18.35;;;;;;;;;;5044464;28;20037;-59
2022/08/04 05:49:55;;;;;;;18.45;17.45;;;;;;;;;;5041076;28;20033;-60
2022/08/04 05:52:22;;;;;;;18.05;17.05;;;;;;;;;;5043301;28;20037;-59
2022/08/04 05:54:50;;;;;;;12.35;11.57;;;;;;;;;;5042681;28;20041;-60
2022/08/04 05:57:16;;;;;;;12.27;11.57;;;;;;;;;;5039823;28;20025;-60
2022/08/04 05:59:45;;;;;;;11.32;10.63;;;;;;;;;;5045950;28;20032;-59
2022/08/04 06:02:13;;;;;;;11.88;11.18;;;;;;;;;;5044989;28;20801;-60
2022/08/04 06:04:40;;;;;;;15.57;14.70;;;;;;;;;;5041243;28;20064;-59
2022/08/04 06:07:07;;;;;;;12.57;11.82;;;;;;;;;;5044903;28;20029;-59
2022/08/04 06:09:32;;;;;;;15.38;14.48;;;;;;;;;;5047500;28;20419;-60
2022/08/04 06:12:05;;;;;;;13.65;12.80;;;;;;;;;;5049056;28;20091;-60
2022/08/04 06:14:40;;;;;;;11.52;10.80;;;;;;;;;;5041506;28;20029;-60
2022/08/04 06:17:07;;;;;;;12.48;11.70;;;;;;;;;;5040644;28;20151;-60
2022/08/04 06:19:35;;;;;;;20.20;19.10;;;;;;;;;;5042107;28;20033;-60
2022/08/04 06:22:04;;;;;;;23.98;22.67;;;;;;;;;;5042365;28;20032;-60
2022/08/04 06:24:31;;;;;;;27.60;26.13;;;;;;;;;;5042294;28;20048;-58
2022/08/04 06:26:57;;;;;;;26.85;25.45;;;;;;;;;;5045419;28;20112;-58
2022/08/04 06:29:45;;;;;;;22.10;20.75;;;;;;;;;;5042162;28;20056;-60
2022/08/04 06:32:23;;;;;;;28.60;27.02;;;;;;;;;;5039801;28;20037;-60
2022/08/04 06:34:51;;;;;;;32.67;30.98;;;;;;;;;;5045443;28;20120;-60
2022/08/04 06:37:17;;;;;;;35.78;33.90;;;;;;;;;;5041867;28;20395;-58
2022/08/04 06:39:43;;;;;;;37.30;35.40;;;;;;;;;;5041296;28;20041;-58
2022/08/04 06:42:08;;;;;;;32.25;30.55;;;;;;;;;;5045544;28;20043;-58
2022/08/04 06:44:35;;;;;;;28.90;27.30;;;;;;;;;;5048524;28;20366;-58
2022/08/04 06:47:01;;;;;;;23.60;22.30;;;;;;;;;;5046089;28;20090;-58
2022/08/04 06:49:29;;;;;;;27.05;25.45;;;;;;;;;;5041588;28;20388;-58
2022/08/04 06:51:56;;;;;;;31.10;29.50;;;;;;;;;;5041325;28;20032;-58
2022/08/04 06:54:21;;;;;;;26.58;25.17;;;;;;;;;;5041567;28;20025;-58
2022/08/04 06:56:49;;;;;;;22.23;21.02;;;;;;;;;;5042317;28;20036;-58
2022/08/04 06:59:15;;;;;;;20.85;19.75;;;;;;;;;;5046133;28;20537;-58
2022/08/04 07:01:42;;;;;;;27.80;26.30;;;;;;;;;;5044646;28;20033;-58
2022/08/04 07:04:09;;;;;;;24.83;23.42;;;;;;;;;;5045256;28;20054;-58
2022/08/04 07:06:35;;;;;;;33.55;31.75;;;;;;;;;;5044943;28;20327;-58
2022/08/04 07:09:01;;;;;;;42.65;40.45;;;;;;;;;;5045888;28;20017;-58
2022/08/04 07:11:27;;;;;;;43.92;41.65;;;;;;;;;;5042888;28;20112;-58
2022/08/04 07:13:53;;;;;;;49.55;46.97;;;;;;;;;;5045255;28;20119;-58
2022/08/04 07:16:21;;;;;;;51.65;49.05;;;;;;;;;;5046804;28;20033;-58
2022/08/04 07:18:46;;;;;;;44.53;42.22;;;;;;;;;;5049654;28;20091;-58
2022/08/04 07:21:22;;;;;;;66.00;62.70;;;;;;;;;;5045017;28;20342;-58
2022/08/04 07:23:48;;;;;;;62.65;59.47;;;;;;;;;;5043125;28;20029;-58
2022/08/04 07:26:16;;;;;;;70.95;67.43;;;;;;;;;;5043080;28;20142;-58
2022/08/04 07:28:41;;;;;;;86.15;81.88;;;;;;;;;;5047694;28;20041;-58
2022/08/04 07:31:11;;;;;;;90.95;86.45;;;;;;;;;;5044760;28;20039;-58
2022/08/04 07:33:38;;;;;;;84.43;80.25;;;;;;;;;;5049485;28;20072;-59
2022/08/04 07:36:03;;;;;;;96.45;91.68;;;;;;;;;;5048249;28;20032;-60
2022/08/04 07:38:29;;;;;;;109.15;103.78;;;;;;;;;;5045973;28;20092;-60
2022/08/04 07:40:55;;;;;;;91.00;86.50;;;;;;;;;;5044869;28;20033;-60
2022/08/04 07:43:21;;;;;;;104.05;98.95;;;;;;;;;;5049487;28;20117;-60
2022/08/04 07:45:46;;;;;;;101.22;96.22;;;;;;;;;;5051645;28;20070;-60
2022/08/04 07:48:13;;;;;;;121.57;115.60;;;;;;;;;;5047891;28;20588;-60
2022/08/04 07:50:41;;;;;;;123.03;116.93;;;;;;;;;;5046143;28;20040;-59
2022/08/04 07:53:08;;;;;;;127.10;120.45;;;;;;;;;;5043499;28;20029;-59
2022/08/04 07:55:33;;;;;;;126.85;120.53;;;;;;;;;;5045842;28;20048;-59
2022/08/04 07:57:59;;;;;;;130.75;124.35;;;;;;;;;;5041642;28;20032;-60
2022/08/04 08:00:25;;;;;;;130.50;124.03;;;;;;;;;;5043140;28;20017;-60
2022/08/04 08:02:53;;;;;;;134.10;127.38;;;;;;;;;;5043183;28;20032;-59
2022/08/04 08:05:19;;;;;;;140.20;133.30;;;;;;;;;;5045144;28;20051;-60
2022/08/04 08:07:49;;;;;;;129.18;122.78;;;;;;;;;;5044510;28;20447;-60
2022/08/04 08:10:15;;;;;;;133.25;126.68;;;;;;;;;;5030158;28;20052;-60
2022/08/04 08:12:41;;;;;;;139.45;132.55;;;;;;;;;;5049039;28;20089;-59
2022/08/04 08:15:08;;;;;;;109.88;104.47;;;;;;;;;;5046544;28;20025;-61
2022/08/04 08:17:35;;;;;;;82.93;78.82;;;;;;;;;;5046274;28;20056;-60
2022/08/04 08:20:01;;;;;;;61.83;58.67;;;;;;;;;;5048191;28;20409;-59
2022/08/04 08:22:27;;;;;;;63.45;60.22;;;;;;;;;;5046151;28;20025;-59
2022/08/04 08:24:53;;;;;;;69.25;65.80;;;;;;;;;;5042222;28;20044;-59
2022/08/04 08:27:19;;;;;;;89.93;85.47;;;;;;;;;;5045632;28;20675;-60
2022/08/04 08:29:44;;;;;;;61.15;58.05;;;;;;;;;;5040661;28;20036;-60
2022/08/04 08:32:12;;;;;;;66.25;62.95;;;;;;;;;;5040593;28;20091;-59
2022/08/04 08:34:39;;;;;;;52.70;50.03;;;;;;;;;;5045839;28;20455;-60
2022/08/04 08:37:38;;;;;;;50.00;47.50;;;;;;;;;;5046958;28;20521;-59
2022/08/04 08:40:19;;;;;;;48.45;46.03;;;;;;;;;;5041779;28;20052;-59
2022/08/04 08:43:03;;;;;;;56.15;53.33;;;;;;;;;;5051245;28;20029;-59
2022/08/04 08:45:40;;;;;;;66.07;62.80;;;;;;;;;;5050792;28;20079;-60
2022/08/04 08:48:16;;;;;;;59.80;56.80;;;;;;;;;;5060165;28;20111;-60
2022/08/04 08:51:03;;;;;;;80.22;76.25;;;;;;;;;;5044069;28;20165;-59
2022/08/04 08:53:41;;;;;;;76.95;73.15;;;;;;;;;;5047866;28;20064;-60
2022/08/04 08:56:27;;;;;;;64.00;60.78;;;;;;;;;;5041714;28;20029;-60
2022/08/04 08:59:33;;;;;;;80.60;76.60;;;;;;;;;;5045196;28;20039;-60
2022/08/04 09:02:23;;;;;;;89.90;85.43;;;;;;;;;;5044213;28;20136;-59
2022/08/04 09:05:13;;;;;;;82.97;78.80;;;;;;;;;;5046427;28;20111;-60
2022/08/04 09:08:12;;;;;;;98.30;93.45;;;;;;;;;;5039076;28;20037;-60
2022/08/04 09:10:47;;;;;;;84.13;79.95;;;;;;;;;;5040659;28;20116;-60
2022/08/04 09:13:26;;;;;;;91.90;87.35;;;;;;;;;;5042962;28;20043;-59
2022/08/04 09:16:05;;;;;;;91.35;86.82;;;;;;;;;;5046187;28;20040;-60
2022/08/04 09:18:39;;;;;;;111.93;106.43;;;;;;;;;;5050261;28;20040;-60
2022/08/04 09:21:21;;;;;;;101.43;96.32;;;;;;;;;;5040784;28;20033;-60
2022/08/04 09:24:13;;;;;;;103.22;98.15;;;;;;;;;;5047273;28;20087;-60
2022/08/04 09:26:47;;;;;;;119.47;113.57;;;;;;;;;;5044482;28;20037;-60
2022/08/04 09:29:38;;;;;;;158.98;151.07;;;;;;;;;;5042907;28;20037;-60
2022/08/04 09:32:29;;;;;;;134.75;127.97;;;;;;;;;;5034334;28;20041;-60
2022/08/04 09:35:06;;;;;;;131.25;124.72;;;;;;;;;;5045101;28;20056;-60
2022/08/04 09:37:50;;;;;;;100.60;95.65;;;;;;;;;;5042753;28;20530;-60
2022/08/04 09:40:47;;;;;;;116.20;110.30;;;;;;;;;;5045390;28;20073;-60
2022/08/04 09:43:31;;;;;;;158.25;150.38;;;;;;;;;;5042190;28;20113;-59
2022/08/04 09:45:59;;;;;;;107.07;101.80;;;;;;;;;;5042518;28;20059;-59
2022/08/04 09:48:43;;;;;;;138.15;131.18;;;;;;;;;;5038448;28;20029;-59
2022/08/04 09:51:24;;;;;;;137.18;130.38;;;;;;;;;;5040705;28;20460;-59
2022/08/04 09:54:18;;;;;;;174.63;165.65;;;;;;;;;;5041348;28;20520;-59
2022/08/04 09:57:02;;;;;;;229.60;218.32;;;;;;;;;;5048868;28;20059;-59
2022/08/04 09:59:40;;;;;;;191.35;181.85;;;;;;;;;;5044872;28;20036;-59
2022/08/04 10:02:08;;;;;;;180.80;171.82;;;;;;;;;;5045669;28;20486;-59
2022/08/04 10:04:35;;;;;;;191.73;182.23;;;;;;;;;;5042556;28;20147;-59
2022/08/04 10:07:18;;;;;;;191.50;182.05;;;;;;;;;;5042488;28;20071;-59
2022/08/04 10:10:02;;;;;;;191.73;182.25;;;;;;;;;;5041638;28;20044;-60
2022/08/04 10:12:59;;;;;;;215.07;204.52;;;;;;;;;;5044958;28;20044;-59
2022/08/04 10:15:32;;;;;;;214.43;203.90;;;;;;;;;;5045413;28;20048;-59
2022/08/04 10:18:05;;;;;;;225.15;214.10;;;;;;;;;;5047505;28;20036;-59
2022/08/04 10:21:07;;;;;;;243.73;231.77;;;;;;;;;;5045040;28;20029;-59
2022/08/04 10:23:59;;;;;;;249.75;237.48;;;;;;;;;;5041748;28;20050;-60
2022/08/04 10:26:43;;;;;;;258.58;245.82;;;;;;;;;;5038231;28;20033;-59
2022/08/04 10:29:41;;;;;;;250.15;237.85;;;;;;;;;;5043256;28;20037;-60
2022/08/04 10:32:19;;;;;;;212.77;202.30;;;;;;;;;;5044458;28;20038;-60
2022/08/04 10:35:07;;;;;;;221.20;210.35;;;;;;;;;;5042307;28;20033;-60
2022/08/04 10:37:42;;;;;;;188.55;179.27;;;;;;;;;;5045709;28;20120;-60
2022/08/04 10:43:20;;;;;;;190.20;180.83;;;;;;;;;;5042458;28;20614;-58
2022/08/04 10:45:57;;;;;;;193.63;184.10;;;;;;;;;;5049229;28;20276;-58
2022/08/04 10:48:29;;;;;;;201.82;191.98;;;;;;;;;;5048821;28;20032;-58
2022/08/04 10:51:34;;;;;;;129.32;122.97;;;;;;;;;;5047010;28;20378;-58
2022/08/04 10:54:05;;;;;;;123.18;117.13;;;;;;;;;;5036288;28;20123;-56
2022/08/04 10:56:49;;;;;;;192.77;183.32;;;;;;;;;;5049286;28;20120;-58
2022/08/04 10:59:27;;;;;;;127.13;120.85;;;;;;;;;;5044620;28;20033;-57
2022/08/04 11:01:57;;;;;;;99.35;94.47;;;;;;;;;;5051013;28;20520;-58
2022/08/04 11:04:47;;;;;;;131.82;125.32;;;;;;;;;;5049815;28;20033;-57
2022/08/04 11:07:15;;;;;;;149.40;142.02;;;;;;;;;;5042884;28;20082;-56
2022/08/04 11:09:43;;;;;;;96.93;92.03;;;;;;;;;;5044132;28;20126;-57
2022/08/04 11:12:15;;;;;;;172.00;163.52;;;;;;;;;;5048315;28;20599;-57
2022/08/04 11:14:52;;;;;;;103.45;98.32;;;;;;;;;;5040767;28;20478;-57
2022/08/04 11:17:40;;;;;;;69.38;65.68;;;;;;;;;;5044632;28;20040;-57
2022/08/04 11:20:26;;;;;;;51.50;48.88;;;;;;;;;;5045887;28;20494;-57
2022/08/04 11:23:09;;;;;;;68.43;64.97;;;;;;;;;;5045157;28;20047;-58
2022/08/04 11:25:44;;;;;;;53.53;50.75;;;;;;;;;;5041820;28;20099;-58
2022/08/04 11:28:28;;;;;;;41.20;39.08;;;;;;;;;;5046372;28;20040;-57
2022/08/04 11:31:06;;;;;;;41.58;39.47;;;;;;;;;;5044286;28;20032;-58
2022/08/04 11:33:53;;;;;;;32.90;31.20;;;;;;;;;;5044733;28;20041;-58
2022/08/04 11:36:27;;;;;;;37.75;35.85;;;;;;;;;;5044752;28;20140;-58
2022/08/04 11:39:06;;;;;;;43.25;41.08;;;;;;;;;;5042900;28;20108;-58
2022/08/04 11:41:47;;;;;;;39.97;37.95;;;;;;;;;;5039760;28;20040;-58
2022/08/04 11:44:21;;;;;;;44.38;42.15;;;;;;;;;;5045549;28;20096;-58
2022/08/04 11:46:50;;;;;;;51.55;48.95;;;;;;;;;;5044707;28;20044;-58
2022/08/04 11:49:23;;;;;;;;;;;;;;;;;;5046641;28;20104;-57
2022/08/04 11:51:50;;;;;;;60.45;57.45;;;;;;;;;;5043727;28;20252;-57
2022/08/04 11:54:17;;;;;;;52.85;50.20;;;;;;;;;;5045331;28;20608;-57
2022/08/04 11:56:43;;;;;;;42.65;40.45;;;;;;;;;;5043384;28;20038;-57
2022/08/04 11:59:08;;;;;;;74.35;70.65;;;;;;;;;;5043321;28;20146;-57
2022/08/04 12:01:58;;;;;;;41.85;39.72;;;;;;;;;;5043807;28;20036;-57
2022/08/04 12:04:55;;;;;;;75.07;71.38;;;;;;;;;;5039345;28;20036;-57
2022/08/04 12:07:28;;;;;;;105.75;100.20;;;;;;;;;;5043036;28;20055;-57
2022/08/04 12:10:31;;;;;;;91.47;86.93;;;;;;;;;;5044523;28;20402;-56
2022/08/04 12:13:11;;;;;;;104.63;99.50;;;;;;;;;;5042163;28;20119;-57
2022/08/04 12:16:01;;;;;;;79.38;75.45;;;;;;;;;;5044634;28;20033;-57
2022/08/04 12:18:36;;;;;;;52.80;50.10;;;;;;;;;;5042615;28;20071;-57
2022/08/04 12:21:08;;;;;;;41.33;39.22;;;;;;;;;;5044176;28;20101;-57
2022/08/04 12:23:41;;;;;;;81.60;77.57;;;;;;;;;;5050507;28;20050;-57
2022/08/04 12:26:23;;;;;;;59.88;56.90;;;;;;;;;;5041752;28;20453;-58
2022/08/04 12:28:56;;;;;;;79.53;75.63;;;;;;;;;;5042467;28;20032;-58
2022/08/04 12:31:31;;;;;;;47.42;45.03;;;;;;;;;;5041165;28;20039;-57
2022/08/04 12:34:07;;;;;;;42.67;40.47;;;;;;;;;;5041280;28;20056;-57
2022/08/04 12:36:42;;;;;;;49.38;46.85;;;;;;;;;;5045525;28;20041;-58
2022/08/04 12:39:16;;;;;;;73.47;69.82;;;;;;;;;;5040287;28;20037;-57
2022/08/04 12:41:52;;;;;;;77.65;73.82;;;;;;;;;;5043752;28;20028;-58
2022/08/04 12:44:19;;;;;;;100.03;95.13;;;;;;;;;;5041295;28;20032;-59
2022/08/04 12:46:45;;;;;;;74.97;71.25;;;;;;;;;;5043021;28;20652;-59
2022/08/04 12:49:12;;;;;;;61.97;58.85;;;;;;;;;;5039094;28;20055;-59
2022/08/04 12:51:42;;;;;;;77.10;73.30;;;;;;;;;;5045944;28;20205;-59
2022/08/04 12:54:09;;;;;;;87.38;83.10;;;;;;;;;;5044748;28;20488;-59
2022/08/04 12:56:35;;;;;;;87.57;83.28;;;;;;;;;;5041499;28;20056;-59
2022/08/04 12:59:04;;;;;;;69.57;66.10;;;;;;;;;;5044307;28;20411;-59
2022/08/04 13:01:31;;;;;;;55.20;52.42;;;;;;;;;;5043682;28;20028;-59
2022/08/04 13:04:11;;;;;;;76.25;72.47;;;;;;;;;;5042935;28;20013;-59
2022/08/04 13:06:38;;;;;;;53.88;51.15;;;;;;;;;;5041856;28;20037;-59
2022/08/04 13:09:08;;;;;;;55.17;52.38;;;;;;;;;;5038099;28;20487;-59
2022/08/04 13:11:37;;;;;;;85.93;81.68;;;;;;;;;;5042895;28;20047;-60
2022/08/04 13:14:04;;;;;;;83.55;79.43;;;;;;;;;;5047872;28;20064;-59
2022/08/04 13:16:31;;;;;;;69.03;65.60;;;;;;;;;;5041557;28;20544;-59
2022/08/04 13:18:57;;;;;;;58.88;55.92;;;;;;;;;;5040576;28;20041;-60
2022/08/04 13:21:24;;;;;;;59.10;56.13;;;;;;;;;;5039250;28;20039;-59
2022/08/04 13:23:52;;;;;;;70.82;67.32;;;;;;;;;;5045388;28;20029;-59
2022/08/04 13:26:20;;;;;;;80.82;76.85;;;;;;;;;;5043318;28;20032;-59
2022/08/04 13:28:48;;;;;;;49.15;46.67;;;;;;;;;;5039599;28;20060;-60
2022/08/04 13:31:18;;;;;;;39.88;37.85;;;;;;;;;;5044995;28;20088;-59
2022/08/04 13:33:47;;;;;;;57.35;54.47;;;;;;;;;;5041073;28;20082;-60
2022/08/04 13:36:13;;;;;;;75.93;72.15;;;;;;;;;;5042761;28;20335;-60
2022/08/04 13:38:54;;;;;;;104.78;99.65;;;;;;;;;;5045161;28;20083;-60
2022/08/04 13:41:21;;;;;;;111.57;106.10;;;;;;;;;;5043414;28;20032;-60
2022/08/04 13:43:57;;;;;;;58.83;55.88;;;;;;;;;;5044220;28;20029;-60
2022/08/04 13:46:25;;;;;;;74.60;70.93;;;;;;;;;;5043912;28;20079;-60
2022/08/04 13:48:51;;;;;;;74.43;70.70;;;;;;;;;;5042318;28;20032;-59
2022/08/04 13:51:19;;;;;;;60.28;57.22;;;;;;;;;;5040394;28;20482;-59
2022/08/04 13:53:53;;;;;;;86.22;81.97;;;;;;;;;;5043822;28;20044;-59
2022/08/04 13:56:21;;;;;;;83.68;79.57;;;;;;;;;;5043096;28;20078;-59
2022/08/04 13:58:48;;;;;;;59.75;56.75;;;;;;;;;;5045236;28;20028;-60
2022/08/04 14:01:20;;;;;;;66.95;63.65;;;;;;;;;;5042640;28;20056;-59
2022/08/04 14:03:48;;;;;;;46.03;43.70;;;;;;;;;;5043314;28;20032;-60
2022/08/04 14:06:20;;;;;;;48.42;45.97;;;;;;;;;;5039753;28;20441;-59
2022/08/04 14:08:52;;;;;;;43.15;40.95;;;;;;;;;;5043021;28;20059;-60
2022/08/04 14:11:38;;;;;;;48.10;45.67;;;;;;;;;;5040227;28;20429;-60
2022/08/04 14:14:15;;;;;;;67.97;64.63;;;;;;;;;;5045517;28;20454;-59
2022/08/04 14:17:10;;;;;;;76.13;72.35;;;;;;;;;;5048326;28;20091;-59
2022/08/04 14:19:58;;;;;;;67.05;63.75;;;;;;;;;;5047338;28;20033;-59
2022/08/04 14:22:27;;;;;;;67.97;64.57;;;;;;;;;;5044076;28;20161;-58
2022/08/04 14:25:16;;;;;;;37.83;35.90;;;;;;;;;;5048275;28;20810;-58
2022/08/04 14:27:50;;;;;;;42.60;40.42;;;;;;;;;;5048864;28;20052;-59
2022/08/04 14:30:27;;;;;;;51.88;49.28;;;;;;;;;;5041510;28;20663;-58
2022/08/04 14:33:08;;;;;;;49.72;47.20;;;;;;;;;;5043649;28;20076;-58
2022/08/04 14:35:36;;;;;;;54.15;51.42;;;;;;;;;;5043474;28;20098;-59
2022/08/04 14:38:09;;;;;;;43.90;41.55;;;;;;;;;;5043639;28;20480;-58
2022/08/04 14:40:37;;;;;;;64.88;61.67;;;;;;;;;;5046001;28;20029;-58
2022/08/04 14:43:04;;;;;;;44.13;41.83;;;;;;;;;;5042343;28;20087;-59
2022/08/04 14:45:44;;;;;;;31.65;30.02;;;;;;;;;;5045479;28;20534;-58
2022/08/04 14:48:12;;;;;;;38.05;36.08;;;;;;;;;;5042143;28;20112;-59
2022/08/04 14:50:40;;;;;;;36.63;34.70;;;;;;;;;;5044473;28;20141;-57
2022/08/04 14:53:11;;;;;;;42.35;40.20;;;;;;;;;;5042722;28;20029;-57
2022/08/04 14:55:38;;;;;;;48.72;46.28;;;;;;;;;;5045849;28;20048;-57
2022/08/04 14:58:04;;;;;;;41.15;39.03;;;;;;;;;;5046461;28;20036;-57
2022/08/04 15:00:34;;;;;;;56.03;53.22;;;;;;;;;;5048648;28;20047;-57
2022/08/04 15:03:02;;;;;;;26.63;25.23;;;;;;;;;;5047785;28;20043;-57
2022/08/04 15:05:29;;;;;;;34.10;32.33;;;;;;;;;;5041411;28;20024;-57
2022/08/04 15:07:55;;;;;;;37.08;35.17;;;;;;;;;;5042816;28;20065;-56
2022/08/04 15:10:21;;;;;;;33.03;31.33;;;;;;;;;;5046195;28;20036;-56